Time;durP1;ratioP1;P1;durP2;ratioP2;P2;SDS_P1;SDS_P2;PMS_P1;PMS_P2;Temp;Humidity;BMP_temperature;BMP_pressure;BME280_temperature;BME280_humidity;BME280_pressure;Samples;Min_cycle;Max_cycle;Signal;HPM_P1;HPM_P2
2023/05/28 00:00:30;;;;;;;10.68;4.72;;;7.50;99.90;;;;;;5003512;28;20079;-79
2023/05/28 00:02:56;;;;;;;9.95;4.93;;;7.50;99.90;;;;;;5004296;28;20032;-78
2023/05/28 00:05:22;;;;;;;9.27;4.53;;;7.50;99.90;;;;;;4996880;28;20034;-79
2023/05/28 00:07:48;;;;;;;10.02;4.00;;;7.50;99.90;;;;;;5002759;28;20034;-78
2023/05/28 00:10:13;;;;;;;8.00;4.35;;;7.40;99.90;;;;;;5005559;28;20118;-78
2023/05/28 00:12:39;;;;;;;11.48;4.10;;;7.30;99.90;;;;;;4996783;28;20025;-79
2023/05/28 00:15:06;;;;;;;10.48;4.25;;;7.30;99.90;;;;;;5003947;28;20971;-78
2023/05/28 00:17:32;;;;;;;10.68;3.97;;;7.20;99.90;;;;;;5005284;28;20037;-78
2023/05/28 00:19:58;;;;;;;9.13;4.07;;;7.20;99.90;;;;;;5004747;28;20397;-78
2023/05/28 00:22:23;;;;;;;6.03;3.55;;;7.10;99.90;;;;;;4994948;28;20037;-78
2023/05/28 00:24:49;;;;;;;7.90;4.07;;;7.00;99.90;;;;;;5004755;28;20370;-78
2023/05/28 00:27:15;;;;;;;7.22;4.00;;;7.00;99.90;;;;;;5000831;28;20038;-78
2023/05/28 00:29:41;;;;;;;13.40;4.90;;;7.00;99.90;;;;;;5005884;28;20143;-79
2023/05/28 00:32:06;;;;;;;8.85;4.30;;;7.00;99.90;;;;;;5005176;28;20121;-79
2023/05/28 00:34:32;;;;;;;8.23;4.72;;;7.00;99.90;;;;;;5004476;28;20038;-79
2023/05/28 00:36:57;;;;;;;11.25;5.05;;;7.00;99.90;;;;;;5002504;28;20038;-78
2023/05/28 00:39:23;;;;;;;11.85;4.80;;;7.00;99.90;;;;;;5004093;28;20037;-78
2023/05/28 00:42:01;;;;;;;7.47;4.75;;;7.00;99.90;;;;;;5004363;28;20114;-78
2023/05/28 00:44:27;;;;;;;9.15;4.45;;;7.00;99.90;;;;;;5002943;28;20086;-79
2023/05/28 00:46:53;;;;;;;9.88;4.43;;;7.00;99.90;;;;;;5004492;28;20370;-78
2023/05/28 00:49:19;;;;;;;10.77;5.03;;;7.00;99.90;;;;;;5004901;28;20476;-79
2023/05/28 00:51:44;;;;;;;15.23;5.03;;;7.00;99.90;;;;;;5004648;28;20049;-79
2023/05/28 00:54:11;;;;;;;12.45;4.97;;;7.00;99.90;;;;;;5002968;28;20034;-78
2023/05/28 00:56:37;;;;;;;10.52;5.00;;;7.00;99.90;;;;;;4999742;28;20022;-78
2023/05/28 00:59:04;;;;;;;9.55;4.80;;;7.00;99.90;;;;;;4998487;28;20030;-78
2023/05/28 01:01:30;;;;;;;7.93;4.50;;;7.00;99.90;;;;;;4983803;28;20482;-79
2023/05/28 01:03:56;;;;;;;9.10;4.80;;;6.90;99.90;;;;;;4987435;28;20109;-78
2023/05/28 01:06:22;;;;;;;7.93;3.97;;;6.80;99.90;;;;;;5002421;28;20083;-78
2023/05/28 01:08:49;;;;;;;8.55;3.90;;;6.80;99.90;;;;;;5022440;28;20496;-78
2023/05/28 01:11:18;;;;;;;8.05;4.40;;;6.70;99.90;;;;;;5002910;28;20046;-79
2023/05/28 01:13:44;;;;;;;11.23;4.60;;;6.60;99.90;;;;;;4996555;28;20050;-78
2023/05/28 01:16:10;;;;;;;9.38;4.65;;;6.60;99.90;;;;;;5000411;28;20038;-78
2023/05/28 01:18:39;;;;;;;13.10;5.82;;;6.50;99.90;;;;;;5001869;28;20402;-78
2023/05/28 01:21:06;;;;;;;10.82;4.90;;;6.50;99.90;;;;;;5005049;28;20042;-78
2023/05/28 01:23:45;;;;;;;13.30;5.68;;;6.50;99.90;;;;;;5003722;28;20096;-78
2023/05/28 01:26:13;;;;;;;11.27;5.72;;;6.50;99.90;;;;;;5001951;28;20486;-79
2023/05/28 01:28:44;;;;;;;12.15;5.50;;;6.50;99.90;;;;;;5004089;28;20050;-78
2023/05/28 01:31:11;;;;;;;16.60;5.85;;;6.50;99.90;;;;;;5004303;28;20116;-78
2023/05/28 01:33:38;;;;;;;8.52;4.97;;;6.50;99.90;;;;;;4995218;28;20037;-78
2023/05/28 01:36:07;;;;;;;10.07;5.22;;;6.50;99.90;;;;;;5006769;28;20033;-78
2023/05/28 01:38:36;;;;;;;13.93;6.13;;;6.50;99.90;;;;;;5008449;28;20018;-79
2023/05/28 01:41:02;;;;;;;11.90;5.22;;;6.50;99.90;;;;;;5008108;28;20068;-78
2023/05/28 01:43:28;;;;;;;13.23;5.68;;;6.50;99.90;;;;;;5006816;28;20412;-79
2023/05/28 01:45:54;;;;;;;9.32;5.78;;;6.50;99.90;;;;;;5012188;28;20034;-79
2023/05/28 01:48:21;;;;;;;15.77;5.80;;;6.50;99.90;;;;;;4990228;28;20088;-78
2023/05/28 01:50:46;;;;;;;14.48;5.53;;;6.60;99.90;;;;;;4991282;28;20034;-78
2023/05/28 01:53:12;;;;;;;17.10;5.72;;;6.50;99.90;;;;;;4988597;28;20061;-79
2023/05/28 01:55:38;;;;;;;16.40;6.75;;;6.50;99.90;;;;;;4995971;28;20485;-78
2023/05/28 01:58:04;;;;;;;11.40;5.60;;;6.50;99.90;;;;;;4995985;28;20171;-78
2023/05/28 02:00:31;;;;;;;14.13;6.32;;;6.50;99.90;;;;;;4992267;28;20431;-78
2023/05/28 02:02:57;;;;;;;16.17;6.07;;;6.60;99.90;;;;;;4987535;28;20030;-78
2023/05/28 02:05:22;;;;;;;14.25;6.10;;;6.60;99.90;;;;;;4987501;28;20034;-79
2023/05/28 02:07:48;;;;;;;12.20;5.63;;;6.60;99.90;;;;;;5022433;28;20112;-79
2023/05/28 02:10:14;;;;;;;13.02;5.90;;;6.60;99.90;;;;;;5014899;28;20031;-78
2023/05/28 02:12:39;;;;;;;11.73;5.80;;;6.60;99.90;;;;;;4997019;28;20030;-79
2023/05/28 02:15:06;;;;;;;13.60;5.57;;;6.50;99.90;;;;;;5001975;28;20066;-78
2023/05/28 02:17:32;;;;;;;11.88;5.15;;;6.50;99.90;;;;;;5009765;28;20037;-77
2023/05/28 02:19:58;;;;;;;9.55;4.82;;;6.40;99.90;;;;;;5007340;28;20033;-78
2023/05/28 02:22:23;;;;;;;14.25;5.35;;;6.40;99.90;;;;;;5007940;28;20500;-78
2023/05/28 02:24:49;;;;;;;13.00;5.82;;;6.40;99.90;;;;;;5007787;28;20033;-78
2023/05/28 02:27:16;;;;;;;15.05;5.47;;;6.40;99.90;;;;;;5010802;28;20205;-79
2023/05/28 02:29:43;;;;;;;15.15;5.53;;;6.40;99.90;;;;;;5014925;28;20026;-78
2023/05/28 02:32:08;;;;;;;14.07;5.32;;;6.30;99.90;;;;;;5007544;28;20054;-78
2023/05/28 02:34:34;;;;;;;10.93;5.55;;;6.30;99.90;;;;;;5006881;28;20450;-78
2023/05/28 02:37:01;;;;;;;10.50;5.50;;;6.30;99.90;;;;;;5003056;28;20042;-79
2023/05/28 02:39:26;;;;;;;10.20;4.90;;;6.20;99.90;;;;;;4999475;28;20042;-78
2023/05/28 02:41:52;;;;;;;10.93;5.30;;;6.10;99.90;;;;;;5002854;28;20103;-78
2023/05/28 02:44:17;;;;;;;9.90;5.40;;;6.10;99.90;;;;;;5005186;28;20072;-79
2023/05/28 02:46:43;;;;;;;12.13;5.50;;;6.10;99.90;;;;;;4990743;28;20049;-78
2023/05/28 02:49:09;;;;;;;11.77;5.35;;;6.00;99.90;;;;;;4998519;28;20030;-78
2023/05/28 02:51:34;;;;;;;13.27;5.57;;;6.00;99.90;;;;;;5004566;28;20075;-78
2023/05/28 02:54:00;;;;;;;11.20;5.53;;;5.90;99.90;;;;;;4989867;28;20078;-78
2023/05/28 02:56:26;;;;;;;10.77;5.68;;;5.90;99.90;;;;;;4998587;28;20037;-78
2023/05/28 02:58:52;;;;;;;10.25;4.75;;;5.80;99.90;;;;;;5005389;28;20056;-78
2023/05/28 03:01:18;;;;;;;15.13;5.30;;;5.80;99.90;;;;;;5001550;28;20151;-78
2023/05/28 03:03:43;;;;;;;10.05;5.72;;;5.70;99.90;;;;;;4987567;28;20034;-78
2023/05/28 03:06:09;;;;;;;12.98;6.43;;;5.70;99.90;;;;;;4989101;28;20469;-78
2023/05/28 03:08:35;;;;;;;16.75;5.95;;;5.70;99.90;;;;;;5004513;28;20083;-78
2023/05/28 03:11:00;;;;;;;14.35;6.53;;;5.70;99.90;;;;;;5005238;28;20069;-78
2023/05/28 03:13:26;;;;;;;16.05;6.10;;;5.70;99.90;;;;;;4991948;28;20026;-78
2023/05/28 03:15:51;;;;;;;10.13;5.47;;;5.70;99.90;;;;;;5000761;28;20097;-78
2023/05/28 03:18:17;;;;;;;14.15;5.57;;;5.70;99.90;;;;;;5025163;28;20035;-78
2023/05/28 03:20:43;;;;;;;9.43;5.38;;;5.60;99.90;;;;;;5024340;28;20040;-78
2023/05/28 03:23:08;;;;;;;10.95;5.18;;;5.60;99.90;;;;;;5015096;28;20076;-78
2023/05/28 03:25:34;;;;;;;14.20;5.88;;;5.60;99.90;;;;;;5003220;28;20109;-78
2023/05/28 03:27:59;;;;;;;10.82;6.22;;;5.60;99.90;;;;;;5007864;28;20857;-78
2023/05/28 03:30:25;;;;;;;11.88;5.88;;;5.50;99.90;;;;;;4997418;28;20033;-78
2023/05/28 03:32:51;;;;;;;12.15;6.10;;;5.50;99.90;;;;;;4985715;28;20449;-78
2023/05/28 03:35:17;;;;;;;10.15;5.75;;;5.50;99.90;;;;;;4986602;28;20159;-79
2023/05/28 03:37:42;;;;;;;11.13;5.63;;;5.50;99.90;;;;;;4998681;28;20093;-78
2023/05/28 03:40:11;;;;;;;8.52;5.53;;;5.50;99.90;;;;;;5009986;28;20037;-78
2023/05/28 03:42:39;;;;;;;8.15;4.82;;;5.50;99.90;;;;;;5007697;28;20046;-79
2023/05/28 03:45:06;;;;;;;10.93;5.57;;;5.50;99.90;;;;;;5001555;28;20034;-79
2023/05/28 03:47:32;;;;;;;8.93;5.95;;;5.40;99.90;;;;;;5004564;28;20108;-77
2023/05/28 03:49:58;;;;;;;12.13;6.55;;;5.40;99.90;;;;;;5001644;28;20072;-79
2023/05/28 03:52:25;;;;;;;11.43;6.10;;;5.40;99.90;;;;;;4998411;28;20053;-79
2023/05/28 03:54:50;;;;;;;8.98;5.35;;;5.30;99.90;;;;;;5005031;28;20172;-78
2023/05/28 03:57:16;;;;;;;9.13;5.53;;;5.30;99.90;;;;;;5005671;28;20492;-79
2023/05/28 03:59:41;;;;;;;9.02;5.20;;;5.30;99.90;;;;;;4995795;28;20029;-80
2023/05/28 04:02:07;;;;;;;10.10;5.85;;;5.30;99.90;;;;;;5005131;28;20035;-80
2023/05/28 04:04:33;;;;;;;10.45;6.38;;;5.30;99.90;;;;;;5004397;28;20065;-79
2023/05/28 04:06:58;;;;;;;11.90;6.68;;;5.30;99.90;;;;;;5005826;28;20030;-79
2023/05/28 04:09:24;;;;;;;11.02;6.65;;;5.40;99.90;;;;;;5031543;28;20029;-79
2023/05/28 04:11:50;;;;;;;11.07;6.25;;;5.40;99.90;;;;;;5025497;28;20056;-79
2023/05/28 04:14:16;;;;;;;8.10;5.40;;;5.40;99.90;;;;;;5015826;28;20113;-80
2023/05/28 04:16:41;;;;;;;10.80;6.22;;;5.40;99.90;;;;;;5002759;28;20117;-79
2023/05/28 04:19:08;;;;;;;9.25;6.45;;;5.50;99.90;;;;;;5004648;28;20053;-79
2023/05/28 04:21:33;;;;;;;8.52;5.82;;;5.50;99.90;;;;;;5002401;28;20034;-79
2023/05/28 04:23:59;;;;;;;9.98;6.22;;;5.60;99.90;;;;;;5013123;28;20102;-80
2023/05/28 04:26:24;;;;;;;7.60;5.68;;;5.60;99.90;;;;;;5003136;28;20393;-80
2023/05/28 04:28:52;;;;;;;8.60;5.55;;;5.60;99.90;;;;;;4987574;28;20030;-79
2023/05/28 04:31:19;;;;;;;8.88;5.90;;;5.70;99.90;;;;;;5001926;28;20212;-79
2023/05/28 04:33:47;;;;;;;7.35;5.28;;;5.70;99.90;;;;;;5005665;28;20485;-79
2023/05/28 04:36:15;;;;;;;9.00;6.03;;;5.70;99.90;;;;;;5005531;28;20037;-80
2023/05/28 04:38:41;;;;;;;8.13;6.22;;;5.80;99.90;;;;;;5000821;28;20052;-79
2023/05/28 04:41:07;;;;;;;7.00;5.45;;;5.90;99.90;;;;;;4998327;28;20029;-80
2023/05/28 04:43:33;;;;;;;9.30;6.30;;;6.00;99.90;;;;;;5005231;28;20573;-79
2023/05/28 04:46:00;;;;;;;7.68;5.85;;;6.10;99.90;;;;;;5002735;28;20033;-79
2023/05/28 04:48:26;;;;;;;7.57;5.47;;;6.20;99.90;;;;;;5003610;28;20500;-80
2023/05/28 04:50:52;;;;;;;7.88;5.68;;;6.30;99.90;;;;;;5003706;28;20033;-80
2023/05/28 04:53:18;;;;;;;8.23;5.47;;;6.40;99.90;;;;;;5012861;28;20030;-80
2023/05/28 04:55:44;;;;;;;7.70;5.55;;;6.50;99.90;;;;;;5010467;28;20045;-78
2023/05/28 04:58:10;;;;;;;8.55;5.47;;;6.70;99.90;;;;;;5005412;28;20024;-80
2023/05/28 05:00:36;;;;;;;11.98;6.88;;;6.80;99.90;;;;;;4997420;28;20025;-79
2023/05/28 05:03:02;;;;;;;13.00;6.88;;;7.00;99.90;;;;;;5015329;28;20070;-80
2023/05/28 05:05:28;;;;;;;9.95;6.63;;;7.10;99.90;;;;;;5011015;28;20022;-79
2023/05/28 05:07:54;;;;;;;9.43;6.80;;;7.30;99.90;;;;;;5007658;28;20109;-80
2023/05/28 05:10:20;;;;;;;11.70;6.65;;;7.40;99.90;;;;;;5007600;28;20041;-79
2023/05/28 05:12:45;;;;;;;10.70;6.85;;;7.50;99.90;;;;;;5003124;28;20082;-79
2023/05/28 05:15:11;;;;;;;9.02;6.22;;;7.60;99.90;;;;;;5011481;28;20037;-79
2023/05/28 05:17:37;;;;;;;9.07;6.60;;;7.60;99.90;;;;;;5021659;28;20036;-79
2023/05/28 05:20:04;;;;;;;9.88;6.20;;;7.60;99.90;;;;;;5011608;28;20037;-79
2023/05/28 05:22:31;;;;;;;9.23;5.93;;;7.60;99.90;;;;;;5015947;28;20530;-80
2023/05/28 05:24:56;;;;;;;8.38;6.22;;;7.70;99.90;;;;;;5007183;28;20029;-80
2023/05/28 05:27:22;;;;;;;9.25;6.47;;;7.70;99.90;;;;;;5008602;28;20551;-79
2023/05/28 05:29:48;;;;;;;10.00;6.15;;;7.80;99.90;;;;;;5003032;28;20027;-79
2023/05/28 05:32:14;;;;;;;8.30;6.03;;;7.80;99.90;;;;;;5008903;28;20030;-79
2023/05/28 05:34:39;;;;;;;8.43;5.97;;;8.00;99.90;;;;;;5007329;28;20034;-80
2023/05/28 05:37:05;;;;;;;8.70;6.47;;;8.10;99.90;;;;;;5021164;28;20095;-80
2023/05/28 05:39:31;;;;;;;11.70;7.28;;;8.20;99.90;;;;;;5003618;28;20062;-79
2023/05/28 05:41:57;;;;;;;11.05;6.22;;;8.40;99.90;;;;;;4987532;28;20663;-79
2023/05/28 05:44:22;;;;;;;11.75;6.55;;;8.60;99.90;;;;;;5009708;28;20521;-80
2023/05/28 05:46:48;;;;;;;10.18;6.97;;;8.70;99.90;;;;;;5007498;28;20516;-79
2023/05/28 05:49:14;;;;;;;13.00;7.38;;;8.90;99.90;;;;;;5008597;28;20030;-79
2023/05/28 05:51:39;;;;;;;12.10;7.75;;;9.10;99.90;;;;;;5008260;28;20022;-79
2023/05/28 05:54:06;;;;;;;13.30;7.55;;;9.30;99.90;;;;;;5026116;28;20048;-79
2023/05/28 05:56:32;;;;;;;217.18;113.00;;;9.50;99.90;;;;;;5012183;28;20108;-78
2023/05/28 05:58:58;;;;;;;595.53;316.52;;;9.70;99.90;;;;;;5005018;28;20121;-80
2023/05/28 06:01:24;;;;;;;150.98;69.75;;;9.80;99.90;;;;;;5006302;28;20041;-79
2023/05/28 06:03:49;;;;;;;29.42;15.02;;;9.90;99.90;;;;;;5011651;28;20034;-79
2023/05/28 06:06:15;;;;;;;13.85;7.70;;;10.00;99.90;;;;;;5007130;28;20048;-80
2023/05/28 06:08:41;;;;;;;13.98;8.73;;;10.00;99.90;;;;;;5006483;28;20995;-79
2023/05/28 06:11:07;;;;;;;16.33;8.63;;;10.00;99.90;;;;;;5004967;28;20025;-80
2023/05/28 06:13:33;;;;;;;45.22;32.30;;;10.00;99.90;;;;;;4998031;28;20055;-80
2023/05/28 06:15:59;;;;;;;58.60;34.03;;;10.10;99.90;;;;;;4999198;28;20065;-83
2023/05/28 06:18:26;;;;;;;18.10;11.07;;;10.10;99.90;;;;;;5008171;28;20482;-80
2023/05/28 06:20:51;;;;;;;15.55;9.90;;;10.30;99.90;;;;;;5000023;28;20034;-87
2023/05/28 06:23:17;;;;;;;14.10;8.52;;;10.30;99.90;;;;;;4990805;28;20026;-80
2023/05/28 06:25:43;;;;;;;13.63;8.65;;;10.50;99.90;;;;;;5003879;28;20034;-80
2023/05/28 06:28:10;;;;;;;18.45;10.27;;;10.70;99.90;;;;;;4999812;28;20370;-80
2023/05/28 06:30:35;;;;;;;22.42;12.85;;;10.80;99.90;;;;;;5000307;28;20022;-80
2023/05/28 06:33:01;;;;;;;20.30;11.15;;;10.80;99.90;;;;;;5005093;28;20498;-79
2023/05/28 06:35:27;;;;;;;19.10;9.40;;;10.90;99.90;;;;;;5002929;28;20042;-80
2023/05/28 06:37:53;;;;;;;22.23;11.85;;;11.20;99.90;;;;;;4999221;28;20469;-79
2023/05/28 06:40:19;;;;;;;20.30;10.90;;;11.40;99.90;;;;;;4991909;28;20525;-79
2023/05/28 06:42:44;;;;;;;20.05;9.40;;;11.40;99.90;;;;;;4998396;28;20509;-80
2023/05/28 06:45:10;;;;;;;128.35;78.40;;;11.60;99.90;;;;;;5003422;28;20865;-80
2023/05/28 06:47:36;;;;;;;28.67;16.45;;;11.70;99.90;;;;;;5003311;28;20026;-80
2023/05/28 06:50:02;;;;;;;21.25;11.48;;;11.80;99.90;;;;;;5004582;28;20031;-80
2023/05/28 06:52:28;;;;;;;20.25;11.40;;;12.00;99.90;;;;;;5005954;28;20050;-80
2023/05/28 06:54:54;;;;;;;24.08;10.82;;;12.10;99.90;;;;;;4985948;28;20038;-80
2023/05/28 06:57:21;;;;;;;21.48;11.50;;;12.20;99.90;;;;;;4986773;28;20026;-80
2023/05/28 06:59:47;;;;;;;51.05;27.50;;;12.20;99.90;;;;;;5007535;28;20040;-80
2023/05/28 07:02:13;;;;;;;23.25;12.82;;;12.30;99.90;;;;;;5006076;28;20036;-81
2023/05/28 07:04:38;;;;;;;19.83;10.50;;;12.20;99.90;;;;;;5005982;28;20033;-80
2023/05/28 07:07:05;;;;;;;21.08;10.57;;;12.30;99.90;;;;;;4995050;28;20034;-80
2023/05/28 07:09:30;;;;;;;23.92;10.70;;;12.60;99.90;;;;;;4989785;28;20045;-81
2023/05/28 07:11:56;;;;;;;16.60;10.05;;;12.80;99.90;;;;;;5006555;28;20049;-80
2023/05/28 07:14:22;;;;;;;22.83;11.00;;;13.10;99.90;;;;;;5003587;28;20093;-81
2023/05/28 07:16:48;;;;;;;17.17;10.07;;;13.20;99.90;;;;;;5007541;28;20030;-80
2023/05/28 07:19:14;;;;;;;20.83;10.90;;;13.20;99.90;;;;;;4999783;28;20038;-80
2023/05/28 07:21:40;;;;;;;19.65;9.90;;;13.20;99.90;;;;;;5006398;28;20517;-81
2023/05/28 07:24:06;;;;;;;19.38;9.57;;;13.30;99.90;;;;;;5002324;28;20121;-82
2023/05/28 07:26:33;;;;;;;18.27;9.75;;;13.60;99.90;;;;;;5017312;28;20034;-82
2023/05/28 07:28:59;;;;;;;22.27;9.32;;;14.00;99.90;;;;;;5000615;28;20041;-79
2023/05/28 07:31:25;;;;;;;18.88;9.48;;;14.40;99.90;;;;;;5003523;28;20082;-78
2023/05/28 07:33:50;;;;;;;18.52;8.55;;;14.90;99.90;;;;;;4999472;28;20516;-79
2023/05/28 07:36:16;;;;;;;15.45;7.90;;;15.50;99.90;;;;;;5001798;28;20926;-79
2023/05/28 07:38:42;;;;;;;15.88;7.38;;;16.20;99.90;;;;;;5003403;28;20121;-79
2023/05/28 07:41:08;;;;;;;14.57;7.07;;;17.30;99.90;;;;;;5005097;28;20036;-81
2023/05/28 07:43:34;;;;;;;17.40;6.88;;;18.70;96.90;;;;;;5001745;28;20050;-80
2023/05/28 07:46:00;;;;;;;11.68;5.57;;;21.20;90.10;;;;;;4994029;28;20411;-81
2023/05/28 07:48:25;;;;;;;11.32;5.35;;;23.30;67.40;;;;;;5013075;28;20034;-81
2023/05/28 07:50:51;;;;;;;10.07;5.45;;;25.60;51.20;;;;;;5001666;28;20041;-82
2023/05/28 07:53:17;;;;;;;12.10;5.30;;;27.00;44.20;;;;;;5013201;28;20041;-81
2023/05/28 07:55:43;;;;;;;11.60;5.00;;;27.80;41.30;;;;;;4997579;28;20046;-81
2023/05/28 07:58:11;;;;;;;9.60;5.43;;;28.80;40.50;;;;;;4996793;28;20045;-81
2023/05/28 08:00:37;;;;;;;11.10;4.90;;;29.10;39.00;;;;;;4985721;28;20099;-81
2023/05/28 08:03:03;;;;;;;8.93;4.43;;;30.60;36.70;;;;;;4999379;28;20989;-79
2023/05/28 08:05:29;;;;;;;11.13;5.50;;;31.80;34.00;;;;;;5002492;28;20030;-81
2023/05/28 08:07:55;;;;;;;9.93;4.93;;;31.50;32.20;;;;;;5000324;28;20030;-80
2023/05/28 08:10:20;;;;;;;9.32;4.93;;;32.20;33.30;;;;;;5002785;28;20040;-81
2023/05/28 08:12:46;;;;;;;11.88;4.72;;;32.60;32.50;;;;;;5003294;28;20037;-81
2023/05/28 08:15:11;;;;;;;9.60;4.63;;;32.90;31.40;;;;;;4988360;28;20050;-82
2023/05/28 08:17:37;;;;;;;10.95;4.55;;;33.00;31.40;;;;;;4996709;28;20029;-81
2023/05/28 08:20:04;;;;;;;10.65;4.82;;;33.50;31.70;;;;;;4993348;28;20042;-81
2023/05/28 08:22:29;;;;;;;6.07;3.45;;;34.10;30.40;;;;;;4999167;28;20029;-82
2023/05/28 08:24:56;;;;;;;10.65;4.30;;;35.00;30.50;;;;;;5000453;28;20058;-81
2023/05/28 08:27:22;;;;;;;9.07;4.25;;;35.10;29.80;;;;;;4994807;28;20092;-81
2023/05/28 08:29:47;;;;;;;10.88;3.88;;;35.50;29.60;;;;;;5000146;28;20041;-82
2023/05/28 08:32:13;;;;;;;8.77;4.10;;;35.10;28.60;;;;;;4990274;28;20045;-82
2023/05/28 08:34:39;;;;;;;10.65;4.05;;;36.10;28.90;;;;;;4997318;28;20450;-80
2023/05/28 08:37:06;;;;;;;10.35;3.90;;;35.10;27.80;;;;;;4993767;28;20027;-81
2023/05/28 08:39:32;;;;;;;8.35;4.03;;;34.40;28.90;;;;;;5003249;28;20068;-82
2023/05/28 08:41:58;;;;;;;7.97;3.70;;;34.10;29.00;;;;;;4997597;28;20522;-79
2023/05/28 08:44:23;;;;;;;7.78;3.55;;;34.70;29.90;;;;;;4985669;28;20034;-81
2023/05/28 08:46:50;;;;;;;10.07;4.20;;;35.40;28.60;;;;;;4985693;28;20131;-80
2023/05/28 08:49:18;;;;;;;11.48;3.80;;;34.70;27.80;;;;;;4994395;28;20452;-81
2023/05/28 08:51:48;;;;;;;11.20;4.25;;;34.20;28.50;;;;;;4998482;28;20034;-80
2023/05/28 08:54:15;;;;;;;12.65;4.65;;;33.90;27.90;;;;;;4997715;28;20021;-80
2023/05/28 08:56:40;;;;;;;9.70;4.60;;;32.60;28.30;;;;;;4996398;28;20164;-80
2023/05/28 08:59:10;;;;;;;8.82;4.22;;;33.10;29.20;;;;;;5013334;28;20034;-80
2023/05/28 09:01:37;;;;;;;8.30;3.63;;;33.50;28.70;;;;;;4993826;28;20161;-80
2023/05/28 09:04:02;;;;;;;8.07;4.47;;;33.90;28.60;;;;;;5001341;28;20033;-81
2023/05/28 09:06:31;;;;;;;15.45;4.85;;;33.70;26.50;;;;;;4990707;28;20034;-84
2023/05/28 09:08:57;;;;;;;10.52;4.35;;;32.70;28.50;;;;;;4989689;28;20117;-80
2023/05/28 09:11:23;;;;;;;10.23;3.80;;;32.30;30.80;;;;;;4997726;28;20046;-80
2023/05/28 09:13:49;;;;;;;14.73;4.93;;;33.80;29.80;;;;;;4996626;28;20034;-81
2023/05/28 09:16:22;;;;;;;11.77;4.82;;;34.10;27.60;;;;;;4985440;28;20085;-80
2023/05/28 09:19:01;;;;;;;8.95;3.63;;;34.30;27.90;;;;;;4999162;28;20476;-81
2023/05/28 09:21:26;;;;;;;11.43;4.20;;;35.60;28.60;;;;;;4994437;28;20516;-80
2023/05/28 09:23:52;;;;;;;12.10;4.68;;;37.10;26.50;;;;;;5003603;28;20030;-81
2023/05/28 09:26:21;;;;;;;11.75;4.70;;;36.50;25.70;;;;;;4997001;28;20054;-77
2023/05/28 09:28:48;;;;;;;12.48;4.28;;;36.60;27.60;;;;;;4992308;28;20034;-76
2023/05/28 09:31:14;;;;;;;9.90;4.10;;;37.00;27.30;;;;;;4998988;28;20511;-76
2023/05/28 09:33:47;;;;;;;10.45;4.47;;;37.50;25.80;;;;;;4998742;28;20065;-76
2023/05/28 09:36:17;;;;;;;11.25;4.38;;;37.10;26.50;;;;;;4986667;28;20066;-75
2023/05/28 09:38:43;;;;;;;13.40;4.45;;;36.30;26.00;;;;;;4983081;28;20072;-77
2023/05/28 09:41:18;;;;;;;8.95;3.65;;;35.90;26.30;;;;;;4991331;28;20464;-76
2023/05/28 09:43:44;;;;;;;9.77;4.35;;;35.30;29.80;;;;;;4991554;28;20192;-78
2023/05/28 09:46:10;;;;;;;10.45;4.22;;;34.50;26.80;;;;;;4991973;28;20117;-77
2023/05/28 09:48:36;;;;;;;11.55;4.20;;;34.30;27.90;;;;;;4994743;28;20156;-75
2023/05/28 09:51:07;;;;;;;10.85;4.25;;;34.60;26.90;;;;;;4992219;28;20034;-77
2023/05/28 09:53:38;;;;;;;9.25;4.00;;;34.00;27.20;;;;;;5000846;28;20519;-76
2023/05/28 09:56:03;;;;;;;;;;;34.20;27.20;;;;;;4999784;28;20057;-77
2023/05/28 09:58:36;;;;;;;12.70;3.72;;;34.40;26.30;;;;;;4995664;28;19910;-76
2023/05/28 10:01:09;;;;;;;7.35;3.30;;;34.60;28.20;;;;;;5004664;28;20060;-76
2023/05/28 10:03:38;;;;;;;9.93;3.90;;;35.60;28.80;;;;;;5000512;28;20185;-76
2023/05/28 10:06:10;;;;;;;9.25;3.63;;;33.70;27.00;;;;;;4985851;28;20045;-76
2023/05/28 10:08:38;;;;;;;7.85;3.53;;;33.80;27.30;;;;;;5012055;28;20514;-77
2023/05/28 10:11:08;;;;;;;6.97;3.25;;;32.90;26.90;;;;;;4993244;28;20042;-75
2023/05/28 10:13:34;;;;;;;6.57;3.20;;;33.00;29.00;;;;;;5003778;28;20048;-76
2023/05/28 10:16:00;;;;;;;9.43;3.20;;;34.10;27.50;;;;;;4999179;28;20038;-76
2023/05/28 10:18:27;;;;;;;8.98;3.38;;;35.60;28.80;;;;;;5000206;28;20090;-76
2023/05/28 10:20:53;;;;;;;9.57;3.25;;;35.20;28.30;;;;;;4983897;28;20058;-76
2023/05/28 10:23:20;;;;;;;6.00;2.95;;;35.40;26.50;;;;;;4994524;28;20069;-76
2023/05/28 10:25:50;;;;;;;9.60;3.40;;;36.90;27.40;;;;;;4991812;28;20068;-77
2023/05/28 10:28:16;;;;;;;11.02;3.45;;;36.70;26.80;;;;;;4995766;28;20093;-78
2023/05/28 10:30:42;;;;;;;9.48;2.65;;;37.10;24.60;;;;;;4997872;28;20385;-78
2023/05/28 10:33:15;;;;;;;8.15;2.90;;;37.60;28.30;;;;;;4997707;28;20534;-77
2023/05/28 10:35:54;;;;;;;8.85;2.80;;;37.80;25.50;;;;;;4996661;28;20477;-77
2023/05/28 10:38:20;;;;;;;9.27;2.92;;;39.00;24.60;;;;;;4998841;28;20022;-75
2023/05/28 10:40:46;;;;;;;8.07;3.00;;;38.80;25.80;;;;;;4992121;28;20491;-75
2023/05/28 10:43:39;;;;;;;10.07;3.15;;;37.80;23.30;;;;;;4992930;28;20038;-77
2023/05/28 10:46:10;;;;;;;9.10;2.97;;;37.00;24.30;;;;;;4995350;28;20054;-75
2023/05/28 10:49:01;;;;;;;9.05;2.67;;;35.70;25.50;;;;;;4995471;28;20029;-76
2023/05/28 10:52:00;;;;;;;9.95;3.20;;;35.40;26.70;;;;;;4995979;28;20037;-77
2023/05/28 10:54:45;;;;;;;6.53;2.75;;;34.90;26.40;;;;;;4995214;28;20038;-76
2023/05/28 10:57:14;;;;;;;5.78;2.47;;;35.20;28.30;;;;;;4981938;28;20227;-76
2023/05/28 11:00:00;;;;;;;7.65;2.97;;;36.40;25.70;;;;;;4997501;28;20037;-76
2023/05/28 11:02:33;;;;;;;9.73;3.10;;;35.60;24.70;;;;;;4988501;28;20041;-76
2023/05/28 11:05:04;;;;;;;9.38;2.97;;;36.10;25.60;;;;;;4983024;28;20500;-76
2023/05/28 11:07:38;;;;;;;7.20;2.90;;;35.70;25.10;;;;;;4992883;28;20030;-76
2023/05/28 11:10:08;;;;;;;7.85;2.70;;;34.20;27.20;;;;;;4988762;28;20026;-76
2023/05/28 11:12:38;;;;;;;;;;;35.50;26.20;;;;;;4995529;28;20908;-77
2023/05/28 11:15:06;;;;;;;5.90;2.50;;;36.30;29.30;;;;;;4983311;28;20366;-76
2023/05/28 11:17:37;;;;;;;6.53;2.50;;;37.50;26.80;;;;;;4994850;28;20361;-77
2023/05/28 11:20:03;;;;;;;6.00;2.70;;;36.60;25.70;;;;;;5000181;28;20089;-76
2023/05/28 11:22:37;;;;;;;8.45;3.10;;;36.40;25.40;;;;;;5000602;28;20030;-77
2023/05/28 11:25:06;;;;;;;8.75;3.10;;;35.40;24.80;;;;;;5001649;28;20029;-76
2023/05/28 11:27:35;;;;;;;7.35;2.67;;;33.30;28.90;;;;;;5000738;28;20139;-77
2023/05/28 11:30:08;;;;;;;7.65;2.75;;;31.90;29.10;;;;;;4999564;28;20656;-76
2023/05/28 11:32:34;;;;;;;5.78;3.13;;;30.50;30.00;;;;;;4995586;28;20073;-76
2023/05/28 11:35:00;;;;;;;8.23;2.88;;;29.80;31.20;;;;;;4995545;28;20217;-76
2023/05/28 11:37:32;;;;;;;7.93;3.00;;;28.60;32.60;;;;;;4996235;28;20553;-78
2023/05/28 11:39:59;;;;;;;8.48;3.17;;;28.00;33.10;;;;;;5000449;28;20030;-76
2023/05/28 11:42:28;;;;;;;7.90;2.80;;;27.40;38.10;;;;;;5000310;28;20054;-76
2023/05/28 11:44:54;;;;;;;9.23;3.17;;;27.20;33.40;;;;;;5000387;28;20057;-76
2023/05/28 11:47:20;;;;;;;5.05;2.75;;;27.10;36.50;;;;;;5002669;28;20022;-76
2023/05/28 11:49:47;;;;;;;7.05;2.70;;;26.80;37.00;;;;;;4989356;28;20062;-76
2023/05/28 11:52:18;;;;;;;8.07;2.80;;;26.70;34.80;;;;;;4984407;28;20032;-76
2023/05/28 11:54:46;;;;;;;9.15;3.40;;;26.30;35.30;;;;;;4980491;28;20145;-76
2023/05/28 11:57:25;;;;;;;6.93;3.08;;;27.10;41.80;;;;;;4640828;28;9999949;-76
2023/05/28 11:59:57;;;;;;;6.18;3.00;;;26.30;34.30;;;;;;4998823;28;20068;-76
2023/05/28 12:02:24;;;;;;;7.90;2.60;;;26.00;31.70;;;;;;4999570;28;20100;-76
2023/05/28 12:04:57;;;;;;;6.50;3.28;;;26.10;39.10;;;;;;4998316;28;20393;-76
2023/05/28 12:07:36;;;;;;;9.32;3.40;;;26.20;36.30;;;;;;4993229;28;20390;-76
2023/05/28 12:10:08;;;;;;;9.57;3.38;;;26.20;35.00;;;;;;4985029;28;20025;-76
2023/05/28 12:12:38;;;;;;;7.25;3.40;;;26.10;35.60;;;;;;5001269;28;20040;-76
2023/05/28 12:15:05;;;;;;;6.78;2.92;;;26.50;34.10;;;;;;4999605;28;20042;-76
2023/05/28 12:17:38;;;;;;;7.22;3.50;;;26.50;36.40;;;;;;4998475;28;20607;-77
2023/05/28 12:20:24;;;;;;;8.00;2.92;;;26.40;37.50;;;;;;4999783;28;20029;-76
2023/05/28 12:23:06;;;;;;;8.85;3.30;;;26.70;37.30;;;;;;4983079;28;20049;-77
2023/05/28 12:25:45;;;;;;;7.07;3.08;;;26.50;36.30;;;;;;4979898;28;20030;-76
2023/05/28 12:28:11;;;;;;;8.25;3.35;;;26.60;35.50;;;;;;4995686;28;20037;-76
2023/05/28 12:30:38;;;;;;;10.50;3.67;;;26.00;36.30;;;;;;4996117;28;20027;-75
2023/05/28 12:33:04;;;;;;;7.22;3.30;;;25.90;36.70;;;;;;4999595;28;20044;-76
2023/05/28 12:35:30;;;;;;;10.48;3.85;;;26.30;38.10;;;;;;4999721;28;20580;-76
2023/05/28 12:37:55;;;;;;;10.05;3.30;;;26.50;36.70;;;;;;4998855;28;20058;-76
2023/05/28 12:40:21;;;;;;;10.57;3.72;;;26.20;36.70;;;;;;5000096;28;20152;-75
2023/05/28 12:42:46;;;;;;;11.15;4.03;;;26.60;45.80;;;;;;4999732;28;20501;-76
2023/05/28 12:45:12;;;;;;;8.10;3.75;;;26.70;39.40;;;;;;4999546;28;20535;-77